createdAt,value
2018-01-19T00:00:13.019Z,2.60
2018-01-19T00:01:13.586Z,2.50
2018-01-19T00:02:14.152Z,2.51
2018-01-19T00:03:14.721Z,2.62
2018-01-19T00:04:15.288Z,2.56
2018-01-19T00:05:15.856Z,2.57
2018-01-19T00:06:16.424Z,2.53
2018-01-19T00:07:17.005Z,2.57
2018-01-19T00:08:17.571Z,2.56
2018-01-19T00:09:18.140Z,2.57
2018-01-19T00:10:18.702Z,2.57
2018-01-19T00:11:19.271Z,2.51
2018-01-19T00:12:19.839Z,2.51
2018-01-19T00:13:20.408Z,2.56
2018-01-19T00:14:20.975Z,2.56
2018-01-19T00:15:21.541Z,2.56
2018-01-19T00:16:22.109Z,2.53
2018-01-19T00:17:22.676Z,2.60
2018-01-19T00:18:23.257Z,2.57
2018-01-19T00:19:23.826Z,2.50
2018-01-19T00:20:24.394Z,2.39
2018-01-19T00:21:24.962Z,2.42
2018-01-19T00:22:25.529Z,2.38
2018-01-19T00:23:26.095Z,2.56
2018-01-19T00:24:26.662Z,2.47
2018-01-19T00:25:27.231Z,2.38
2018-01-19T00:26:27.798Z,2.43
2018-01-19T00:27:28.366Z,2.44
2018-01-19T00:28:28.932Z,2.42
2018-01-19T00:29:29.499Z,2.28
2018-01-19T00:30:30.065Z,2.35
2018-01-19T00:31:30.631Z,2.36
2018-01-19T00:32:31.212Z,2.31
2018-01-19T00:33:31.779Z,2.25
2018-01-19T00:34:32.347Z,2.29
2018-01-19T00:35:32.915Z,2.39
2018-01-19T00:36:33.485Z,2.29
2018-01-19T00:37:34.051Z,2.43
2018-01-19T00:38:34.616Z,2.46
2018-01-19T00:39:35.203Z,2.43
2018-01-19T00:40:35.764Z,2.36
2018-01-19T00:41:36.332Z,2.29
2018-01-19T00:42:36.901Z,2.38
2018-01-19T00:43:37.483Z,2.42
2018-01-19T00:44:38.051Z,2.36
2018-01-19T00:45:38.619Z,2.38
2018-01-19T00:46:39.186Z,2.35
2018-01-19T00:47:39.756Z,2.39
2018-01-19T00:48:40.336Z,2.42
2018-01-19T00:49:40.917Z,2.28
2018-01-19T00:50:41.484Z,2.26
2018-01-19T00:51:42.052Z,2.31
2018-01-19T00:52:42.618Z,2.33
2018-01-19T00:53:43.200Z,2.44
2018-01-19T00:54:43.770Z,2.44
2018-01-19T00:55:44.333Z,2.51
2018-01-19T00:56:44.902Z,2.43
2018-01-19T00:57:45.471Z,2.51
2018-01-19T00:58:46.040Z,2.53
2018-01-19T00:59:46.607Z,2.50
2018-01-19T01:00:47.175Z,2.54
2018-01-19T01:01:47.741Z,2.54
2018-01-19T01:02:48.310Z,2.60
2018-01-19T01:03:48.876Z,2.61
2018-01-19T01:04:49.445Z,2.56
2018-01-19T01:05:50.011Z,2.49
2018-01-19T01:06:50.578Z,2.56
2018-01-19T01:07:51.150Z,2.60
2018-01-19T01:08:51.729Z,2.57
2018-01-19T01:09:52.295Z,2.67
2018-01-19T01:10:52.861Z,2.54
2018-01-19T01:11:53.430Z,2.54
2018-01-19T01:12:53.998Z,2.57
2018-01-19T01:13:54.569Z,2.54
2018-01-19T01:14:55.132Z,2.57
2018-01-19T01:15:55.698Z,2.57
2018-01-19T01:16:56.263Z,2.53
2018-01-19T01:17:56.828Z,2.53
2018-01-19T01:18:57.394Z,2.53
2018-01-19T01:19:57.960Z,2.61
2018-01-19T01:20:58.526Z,2.54
2018-01-19T01:21:59.093Z,2.44
2018-01-19T01:22:59.660Z,2.54
2018-01-19T01:24:00.230Z,2.47
2018-01-19T01:25:00.797Z,2.47
2018-01-19T01:26:01.362Z,2.61
2018-01-19T01:27:01.928Z,2.54
2018-01-19T01:28:02.495Z,2.56
2018-01-19T01:29:03.063Z,2.53
2018-01-19T01:30:03.630Z,2.49
2018-01-19T01:31:04.200Z,2.61
2018-01-19T01:32:04.767Z,2.56
2018-01-19T01:33:05.334Z,2.62
2018-01-19T01:34:05.899Z,2.60
2018-01-19T01:35:06.471Z,2.54
2018-01-19T01:36:07.038Z,2.51
2018-01-19T01:37:07.600Z,2.57
2018-01-19T01:38:08.168Z,2.64
2018-01-19T01:39:08.734Z,2.65
2018-01-19T01:40:09.299Z,2.62
2018-01-19T01:41:09.882Z,2.61
2018-01-19T01:42:10.447Z,2.62
2018-01-19T01:43:11.021Z,2.61
2018-01-19T01:44:11.578Z,2.71
2018-01-19T01:45:12.145Z,2.57
2018-01-19T01:46:12.711Z,2.60
2018-01-19T01:47:13.279Z,2.71
2018-01-19T01:48:13.845Z,2.62
2018-01-19T01:49:14.427Z,2.68
2018-01-19T01:50:14.995Z,2.71
2018-01-19T01:51:15.563Z,2.69
2018-01-19T01:52:16.129Z,2.69
2018-01-19T01:53:16.694Z,2.65
2018-01-19T01:54:17.259Z,2.71
2018-01-19T01:55:17.826Z,2.74
2018-01-19T01:56:18.392Z,2.69
2018-01-19T01:57:18.959Z,2.57
2018-01-19T01:58:19.527Z,2.68
2018-01-19T01:59:20.108Z,2.65
2018-01-19T02:00:20.673Z,2.61
2018-01-19T02:01:21.241Z,2.57
2018-01-19T02:02:21.807Z,2.64
2018-01-19T02:03:22.374Z,2.61
2018-01-19T02:04:22.939Z,2.56
2018-01-19T02:05:23.509Z,2.61
2018-01-19T02:06:24.070Z,2.53
2018-01-19T02:07:24.636Z,2.67
2018-01-19T02:08:25.201Z,2.72
2018-01-19T02:09:25.767Z,2.64
2018-01-19T02:10:26.334Z,2.67
2018-01-19T02:11:26.901Z,2.65
2018-01-19T02:12:27.474Z,2.61
2018-01-19T02:13:28.036Z,2.54
2018-01-19T02:14:28.602Z,2.64
2018-01-19T02:15:29.167Z,2.57
2018-01-19T02:16:29.732Z,2.57
2018-01-19T02:17:30.299Z,2.60
2018-01-19T02:18:30.864Z,2.62
2018-01-19T02:19:31.431Z,2.54
2018-01-19T02:20:31.998Z,2.54
2018-01-19T02:21:32.566Z,2.57
2018-01-19T02:22:33.132Z,2.64
2018-01-19T02:23:33.698Z,2.68
2018-01-19T02:24:34.279Z,2.68
2018-01-19T02:25:34.846Z,2.54
2018-01-19T02:26:35.426Z,2.69
2018-01-19T02:27:35.993Z,2.57
2018-01-19T02:28:36.559Z,2.68
2018-01-19T02:29:37.140Z,2.72
2018-01-19T02:30:37.707Z,2.72
2018-01-19T02:31:38.272Z,2.71
2018-01-19T02:32:38.838Z,2.69
2018-01-19T02:33:39.404Z,2.74
2018-01-19T02:34:39.971Z,2.79
2018-01-19T02:35:40.539Z,2.75
2018-01-19T02:36:41.107Z,2.75
2018-01-19T02:37:41.675Z,2.74
2018-01-19T02:38:42.241Z,2.80
2018-01-19T02:39:42.823Z,2.74
2018-01-19T02:40:43.391Z,2.82
2018-01-19T02:41:43.956Z,2.77
2018-01-19T02:42:44.521Z,2.79
2018-01-19T02:43:45.091Z,2.79
2018-01-19T02:44:45.672Z,2.85
2018-01-19T02:45:46.239Z,2.80
2018-01-19T02:46:46.807Z,2.79
2018-01-19T02:47:47.389Z,2.74
2018-01-19T02:48:47.954Z,2.77
2018-01-19T02:49:48.535Z,2.83
2018-01-19T02:50:49.101Z,2.80
2018-01-19T02:51:49.667Z,2.80
2018-01-19T02:52:50.236Z,2.86
2018-01-19T02:53:50.802Z,2.77
2018-01-19T02:54:51.368Z,2.85
2018-01-19T02:55:51.935Z,2.79
2018-01-19T02:56:52.498Z,2.83
2018-01-19T02:57:53.062Z,2.86
2018-01-19T02:58:53.627Z,2.77
2018-01-19T02:59:54.193Z,2.77
2018-01-19T03:00:54.759Z,2.80
2018-01-19T03:01:55.326Z,2.83
2018-01-19T03:02:55.893Z,2.77
2018-01-19T03:03:56.460Z,2.86
2018-01-19T03:04:57.025Z,2.75
2018-01-19T03:05:57.591Z,2.75
2018-01-19T03:06:58.155Z,2.79
2018-01-19T03:07:58.734Z,2.75
2018-01-19T03:08:59.301Z,2.67
2018-01-19T03:09:59.865Z,2.67
2018-01-19T03:11:00.430Z,2.77
2018-01-19T03:12:00.996Z,2.72
2018-01-19T03:13:01.561Z,2.72
2018-01-19T03:14:02.127Z,2.74
2018-01-19T03:15:02.692Z,2.69
2018-01-19T03:16:03.258Z,2.72
2018-01-19T03:17:03.826Z,2.67
2018-01-19T03:18:04.390Z,2.64
2018-01-19T03:19:04.957Z,2.68
2018-01-19T03:20:05.525Z,2.57
2018-01-19T03:21:06.105Z,2.62
2018-01-19T03:22:06.670Z,2.57
2018-01-19T03:23:07.238Z,2.61
2018-01-19T03:24:07.804Z,2.56
2018-01-19T03:25:08.369Z,2.54
2018-01-19T03:26:08.934Z,2.56
2018-01-19T03:27:09.500Z,2.54
2018-01-19T03:28:10.066Z,2.60
2018-01-19T03:29:10.632Z,2.67
2018-01-19T03:30:11.202Z,2.60
2018-01-19T03:31:11.781Z,2.53
2018-01-19T03:32:12.348Z,2.54
2018-01-19T03:33:12.924Z,2.57
2018-01-19T03:34:13.490Z,2.54
2018-01-19T03:35:14.055Z,2.54
2018-01-19T03:36:14.622Z,2.62
2018-01-19T03:37:15.190Z,2.53
2018-01-19T03:38:15.771Z,2.54
2018-01-19T03:39:16.338Z,2.60
2018-01-19T03:40:16.919Z,2.60
2018-01-19T03:41:17.486Z,2.54
2018-01-19T03:42:18.054Z,2.49
2018-01-19T03:43:18.619Z,2.57
2018-01-19T03:44:19.186Z,2.39
2018-01-19T03:45:19.750Z,2.39
2018-01-19T03:46:20.316Z,2.54
2018-01-19T03:47:20.881Z,2.44
2018-01-19T03:48:21.447Z,2.38
2018-01-19T03:49:22.027Z,2.54
2018-01-19T03:50:22.598Z,2.44
2018-01-19T03:51:23.158Z,2.42
2018-01-19T03:52:23.738Z,2.38
2018-01-19T03:53:24.303Z,2.43
2018-01-19T03:54:24.868Z,2.44
2018-01-19T03:55:25.435Z,2.35
2018-01-19T03:56:26.003Z,2.46
2018-01-19T03:57:26.569Z,2.36
2018-01-19T03:58:27.130Z,2.32
2018-01-19T03:59:27.698Z,2.28
2018-01-19T04:00:28.264Z,2.29
2018-01-19T04:01:28.831Z,2.33
2018-01-19T04:02:29.397Z,2.26
2018-01-19T04:03:29.959Z,2.29
2018-01-19T04:04:30.522Z,2.29
2018-01-19T04:05:31.086Z,2.24
2018-01-19T04:06:31.648Z,2.25
2018-01-19T04:07:32.211Z,2.22
2018-01-19T04:08:32.774Z,2.15
2018-01-19T04:09:33.338Z,2.24
2018-01-19T04:10:33.900Z,2.25
2018-01-19T04:11:34.465Z,2.17
2018-01-19T04:12:35.027Z,2.22
2018-01-19T04:13:35.591Z,2.14
2018-01-19T04:14:36.152Z,2.18
2018-01-19T04:15:36.716Z,2.18
2018-01-19T04:16:37.280Z,2.08
2018-01-19T04:17:37.844Z,2.10
2018-01-19T04:18:38.406Z,2.07
2018-01-19T04:19:38.973Z,2.07
2018-01-19T04:20:39.533Z,2.08
2018-01-19T04:21:40.100Z,2.06
2018-01-19T04:22:40.665Z,2.06
2018-01-19T04:23:41.232Z,1.99
2018-01-19T04:24:41.796Z,2.00
2018-01-19T04:25:42.362Z,1.95
2018-01-19T04:26:42.927Z,1.95
2018-01-19T04:27:43.493Z,1.91
2018-01-19T04:28:44.073Z,1.94
2018-01-19T04:29:44.638Z,2.07
2018-01-19T04:30:45.202Z,2.04
2018-01-19T04:31:45.780Z,2.08
2018-01-19T04:32:46.343Z,2.00
2018-01-19T04:33:46.908Z,1.92
2018-01-19T04:34:47.471Z,2.00
2018-01-19T04:35:48.048Z,2.04
2018-01-19T04:36:48.613Z,2.02
2018-01-19T04:37:49.177Z,2.08
2018-01-19T04:38:49.742Z,1.97
2018-01-19T04:39:50.306Z,2.06
2018-01-19T04:40:50.871Z,1.95
2018-01-19T04:41:51.435Z,2.10
2018-01-19T04:42:52.000Z,2.06
2018-01-19T04:43:52.563Z,2.07
2018-01-19T04:44:53.129Z,2.10
2018-01-19T04:45:53.691Z,2.08
2018-01-19T04:46:54.256Z,2.08
2018-01-19T04:47:54.821Z,2.15
2018-01-19T04:48:55.383Z,2.08
2018-01-19T04:49:55.948Z,2.06
2018-01-19T04:50:56.511Z,2.15
2018-01-19T04:51:57.076Z,2.10
2018-01-19T04:52:57.645Z,2.08
2018-01-19T04:53:58.205Z,2.07
2018-01-19T04:54:58.769Z,2.08
2018-01-19T04:55:59.333Z,2.14
2018-01-19T04:56:59.899Z,2.15
2018-01-19T04:58:00.465Z,2.11
2018-01-19T04:59:01.031Z,2.18
2018-01-19T05:00:01.598Z,2.11
2018-01-19T05:01:02.163Z,2.11
2018-01-19T05:02:02.731Z,2.18
2018-01-19T05:03:03.296Z,2.11
2018-01-19T05:04:03.862Z,2.11
2018-01-19T05:05:04.426Z,2.08
2018-01-19T05:06:04.994Z,2.20
2018-01-19T05:07:05.554Z,2.07
2018-01-19T05:08:06.121Z,2.07
2018-01-19T05:09:06.688Z,2.11
2018-01-19T05:10:07.254Z,2.08
2018-01-19T05:11:07.823Z,2.07
2018-01-19T05:12:08.387Z,2.07
2018-01-19T05:13:08.953Z,1.94
2018-01-19T05:14:09.517Z,2.04
2018-01-19T05:15:10.088Z,2.07
2018-01-19T05:16:10.648Z,2.10
2018-01-19T05:17:11.227Z,2.07
2018-01-19T05:18:11.793Z,2.07
2018-01-19T05:19:12.361Z,1.97
2018-01-19T05:20:12.938Z,2.11
2018-01-19T05:21:13.503Z,1.97
2018-01-19T05:22:14.086Z,2.08
2018-01-19T05:23:14.666Z,2.13
2018-01-19T05:24:15.230Z,2.10
2018-01-19T05:25:15.809Z,2.06
2018-01-19T05:26:16.376Z,2.06
2018-01-19T05:27:16.942Z,2.06
2018-01-19T05:28:17.508Z,2.07
2018-01-19T05:29:18.074Z,2.06
2018-01-19T05:30:18.639Z,2.07
2018-01-19T05:31:19.204Z,2.13
2018-01-19T05:32:19.768Z,2.08
2018-01-19T05:33:20.338Z,2.08
2018-01-19T05:34:20.896Z,2.06
2018-01-19T05:35:21.460Z,2.14
2018-01-19T05:36:22.027Z,2.10
2018-01-19T05:37:22.594Z,2.08
2018-01-19T05:38:23.160Z,2.07
2018-01-19T05:39:23.729Z,2.07
2018-01-19T05:40:24.293Z,2.14
2018-01-19T05:41:24.858Z,2.10
2018-01-19T05:42:25.436Z,2.10
2018-01-19T05:43:26.003Z,2.11
2018-01-19T05:44:26.598Z,2.15
2018-01-19T05:45:27.149Z,2.14
2018-01-19T05:46:27.713Z,2.10
2018-01-19T05:47:28.280Z,2.07
2018-01-19T05:48:28.845Z,2.07
2018-01-19T05:49:29.411Z,2.14
2018-01-19T05:50:29.977Z,2.14
2018-01-19T05:51:30.542Z,2.18
2018-01-19T05:52:31.108Z,2.10
2018-01-19T05:53:31.674Z,2.13
2018-01-19T05:54:32.241Z,2.18
2018-01-19T05:55:32.806Z,2.15
2018-01-19T05:56:33.385Z,2.14
2018-01-19T05:57:33.953Z,2.15
2018-01-19T05:58:34.521Z,2.17
2018-01-19T05:59:35.084Z,2.20
2018-01-19T06:00:35.655Z,2.14
2018-01-19T06:01:36.213Z,2.20
2018-01-19T06:02:36.778Z,2.17
2018-01-19T06:03:37.345Z,2.20
2018-01-19T06:04:37.908Z,2.10
2018-01-19T06:05:38.474Z,2.10
2018-01-19T06:06:39.042Z,2.17
2018-01-19T06:07:39.607Z,2.20
2018-01-19T06:08:40.173Z,2.13
2018-01-19T06:09:40.738Z,2.18
2018-01-19T06:10:41.304Z,2.18
2018-01-19T06:11:41.870Z,2.29
2018-01-19T06:12:42.434Z,2.29
2018-01-19T06:13:42.999Z,2.31
2018-01-19T06:14:43.577Z,2.36
2018-01-19T06:15:44.143Z,2.39
2018-01-19T06:16:44.710Z,2.51
2018-01-19T06:17:45.277Z,-15.92
2018-01-19T06:18:45.847Z,-15.92
2018-01-19T06:19:46.416Z,-15.92
2018-01-19T06:20:46.984Z,-15.92
2018-01-19T06:21:47.551Z,-15.92
2018-01-19T06:22:48.132Z,-15.92
2018-01-19T06:23:48.700Z,-15.92
2018-01-19T06:24:49.269Z,-15.92
2018-01-19T06:25:49.837Z,-15.92
2018-01-19T06:26:50.406Z,-15.92
2018-01-19T06:27:50.984Z,-15.92
2018-01-19T06:28:51.542Z,-15.92
2018-01-19T06:29:52.125Z,-15.92
2018-01-19T06:30:52.693Z,-15.92
2018-01-19T06:31:53.259Z,-15.92
2018-01-19T06:32:53.826Z,-15.92
2018-01-19T06:33:54.395Z,-15.92
2018-01-19T06:34:54.962Z,-15.92
2018-01-19T06:35:55.532Z,-15.92
2018-01-19T06:36:56.100Z,-15.92
2018-01-19T06:37:56.667Z,-15.92
2018-01-19T06:38:57.249Z,-15.92
2018-01-19T06:39:57.816Z,-15.92
2018-01-19T06:40:58.382Z,-15.92
2018-01-19T06:41:58.950Z,-15.92
2018-01-19T06:42:59.530Z,-15.92
2018-01-19T06:44:00.113Z,-15.92
2018-01-19T06:45:00.679Z,-15.92
2018-01-19T06:46:01.260Z,-15.92
2018-01-19T06:47:01.827Z,-15.92
2018-01-19T06:48:02.395Z,-15.92
2018-01-19T06:49:02.964Z,-15.92
2018-01-19T06:50:03.531Z,-15.92
2018-01-19T06:51:04.099Z,-15.92
2018-01-19T06:52:04.665Z,-15.92
2018-01-19T06:53:05.233Z,-15.92
2018-01-19T06:54:05.798Z,2.44
2018-01-19T06:55:06.362Z,2.56
2018-01-19T06:56:06.932Z,-15.92
2018-01-19T06:57:07.498Z,-15.92
2018-01-19T06:58:08.078Z,-15.92
2018-01-19T06:59:08.646Z,-15.92
2018-01-19T07:00:09.213Z,-15.92
2018-01-19T07:01:09.780Z,-15.92
2018-01-19T07:02:10.348Z,-15.92
2018-01-19T07:03:10.916Z,-15.92
2018-01-19T07:04:11.499Z,-15.92
2018-01-19T07:05:12.067Z,-15.92
2018-01-19T07:06:12.634Z,-15.92
2018-01-19T07:07:13.202Z,-15.92
2018-01-19T07:08:13.769Z,-15.92
2018-01-19T07:09:14.338Z,-15.92
2018-01-19T07:10:14.908Z,-15.92
2018-01-19T07:11:15.475Z,-15.92
2018-01-19T07:12:16.057Z,-15.92
2018-01-19T07:13:16.622Z,-15.92
2018-01-19T07:14:17.185Z,2.62
2018-01-19T07:15:17.751Z,-15.92
2018-01-19T07:16:18.320Z,-15.92
2018-01-19T07:17:18.887Z,-15.92
2018-01-19T07:18:19.461Z,-15.92
2018-01-19T07:19:20.025Z,-15.92
2018-01-19T07:20:20.592Z,-15.92
2018-01-19T07:21:21.162Z,-15.92
2018-01-19T07:22:21.731Z,-15.92
2018-01-19T07:23:22.297Z,2.68
2018-01-19T07:24:22.863Z,2.67
2018-01-19T07:25:23.427Z,2.72
2018-01-19T07:26:23.994Z,2.71
2018-01-19T07:27:24.560Z,2.71
2018-01-19T07:28:25.126Z,2.71
2018-01-19T07:29:25.693Z,2.72
2018-01-19T07:30:26.261Z,2.67
2018-01-19T07:31:26.826Z,2.61
2018-01-19T07:32:27.392Z,2.61
2018-01-19T07:33:27.957Z,2.53
2018-01-19T07:34:28.525Z,-15.92
2018-01-19T07:35:29.093Z,-15.92
2018-01-19T07:36:29.661Z,-15.92
2018-01-19T07:37:30.230Z,-15.92
2018-01-19T07:38:30.797Z,-15.92
2018-01-19T07:39:31.365Z,-15.92
2018-01-19T07:40:31.948Z,-15.92
2018-01-19T07:41:32.514Z,-15.92
2018-01-19T07:42:33.083Z,-15.92
2018-01-19T07:43:33.659Z,-15.92
2018-01-19T07:44:34.221Z,-15.92
2018-01-19T07:45:34.791Z,-15.92
2018-01-19T07:46:35.362Z,-15.92
2018-01-19T07:47:35.947Z,-15.92
2018-01-19T07:48:36.514Z,-15.92
2018-01-19T07:49:37.083Z,-15.92
2018-01-19T07:50:37.654Z,-15.92
2018-01-19T07:51:38.223Z,-15.92
2018-01-19T07:52:38.806Z,-15.92
2018-01-19T07:53:39.375Z,-15.92
2018-01-19T07:54:39.944Z,-15.92
2018-01-19T07:55:40.513Z,-15.92
2018-01-19T07:56:41.083Z,-15.92
2018-01-19T07:57:41.651Z,-15.92
2018-01-19T07:58:42.219Z,-15.92
2018-01-19T07:59:42.788Z,-15.92
2018-01-19T08:00:43.363Z,-15.92
2018-01-19T08:01:43.925Z,-15.92
2018-01-19T08:02:44.507Z,-15.92
2018-01-19T08:03:45.075Z,-15.92
2018-01-19T08:04:45.642Z,-15.92
2018-01-19T08:05:46.212Z,-15.92
2018-01-19T08:06:46.781Z,-15.92
2018-01-19T08:07:47.349Z,-15.92
2018-01-19T08:08:47.920Z,-15.92
2018-01-19T08:09:48.499Z,-15.92
2018-01-19T08:10:49.067Z,-15.92
2018-01-19T08:11:49.636Z,-15.92
2018-01-19T08:12:50.206Z,-15.92
2018-01-19T08:13:50.775Z,-15.92
2018-01-19T08:14:51.342Z,-15.92
2018-01-19T08:15:51.911Z,-15.92
2018-01-19T08:16:52.480Z,-15.92
2018-01-19T08:17:53.050Z,-15.92
2018-01-19T08:18:53.616Z,-15.92
2018-01-19T08:19:54.186Z,-15.92
2018-01-19T08:20:54.755Z,-15.92
2018-01-19T08:21:55.323Z,-15.92
2018-01-19T08:22:55.892Z,-15.92
2018-01-19T08:23:56.461Z,-15.92
2018-01-19T08:24:57.033Z,-15.92
2018-01-19T08:25:57.602Z,-15.92
2018-01-19T08:26:58.186Z,-15.92
2018-01-19T08:27:58.755Z,-15.92
2018-01-19T08:28:59.325Z,-15.92
2018-01-19T08:29:59.894Z,-15.92
2018-01-19T08:31:00.479Z,-15.92
2018-01-19T08:32:01.047Z,-15.92
2018-01-19T08:33:01.615Z,-15.92
2018-01-19T08:34:02.184Z,-15.92
2018-01-19T08:35:02.756Z,-15.92
2018-01-19T08:36:03.325Z,-15.92
2018-01-19T08:37:03.894Z,-15.92
2018-01-19T08:38:04.465Z,-15.92
2018-01-19T08:39:05.036Z,-15.92
2018-01-19T08:40:05.604Z,-15.92
2018-01-19T08:41:06.175Z,-15.92
2018-01-19T08:42:06.744Z,-15.92
2018-01-19T08:43:07.312Z,-15.92
2018-01-19T08:44:07.884Z,-15.92
2018-01-19T08:45:08.454Z,-15.92
2018-01-19T08:46:09.021Z,-15.92
2018-01-19T08:47:09.590Z,-15.92
2018-01-19T08:48:10.160Z,-15.92
2018-01-19T08:49:10.731Z,-15.92
2018-01-19T08:50:11.300Z,-15.92
2018-01-19T08:51:11.884Z,-15.92
2018-01-19T08:52:12.454Z,-15.92
2018-01-19T08:53:13.025Z,-15.92
2018-01-19T08:54:13.593Z,-15.92
2018-01-19T08:55:14.167Z,-15.92
2018-01-19T08:56:14.732Z,-15.92
2018-01-19T08:57:15.301Z,-15.92
2018-01-19T08:58:15.870Z,-15.92
2018-01-19T08:59:16.439Z,-15.92
2018-01-19T09:00:17.011Z,-15.92
2018-01-19T09:01:17.582Z,-15.92
2018-01-19T09:02:18.169Z,-15.92
2018-01-19T09:03:18.737Z,-15.92
2018-01-19T09:04:19.308Z,-15.92
2018-01-19T09:05:19.879Z,-15.92
2018-01-19T09:06:20.449Z,-15.92
2018-01-19T09:07:21.034Z,-15.92
2018-01-19T09:08:21.604Z,-15.92
2018-01-19T09:09:22.175Z,-15.92
2018-01-19T09:10:22.743Z,-15.92
2018-01-19T09:11:23.313Z,-15.92
2018-01-19T09:12:23.884Z,-15.92
2018-01-19T09:13:24.459Z,-15.92
2018-01-19T09:14:25.023Z,-15.92
2018-01-19T09:15:25.596Z,-15.92
2018-01-19T09:16:26.166Z,-15.92
2018-01-19T09:17:26.737Z,-15.92
2018-01-19T09:18:27.308Z,-15.92
2018-01-19T09:19:27.878Z,-15.92
2018-01-19T09:20:28.449Z,-15.92
2018-01-19T09:21:29.033Z,-15.92
2018-01-19T09:22:29.605Z,-15.92
2018-01-19T09:23:30.175Z,-15.92
2018-01-19T09:24:30.746Z,-15.92
2018-01-19T09:25:31.318Z,-15.92
2018-01-19T09:26:31.888Z,-15.92
2018-01-19T09:27:32.458Z,-15.92
2018-01-19T09:28:33.025Z,3.55
2018-01-19T09:29:33.593Z,3.60
2018-01-19T09:30:34.162Z,3.56
2018-01-19T09:31:34.730Z,3.56
2018-01-19T09:32:35.298Z,3.63
2018-01-19T09:33:35.866Z,3.69
2018-01-19T09:34:36.436Z,3.69
2018-01-19T09:35:37.010Z,3.73
2018-01-19T09:36:37.577Z,-15.92
2018-01-19T09:37:38.148Z,-15.92
2018-01-19T09:38:38.721Z,-15.92
2018-01-19T09:39:39.290Z,-15.92
2018-01-19T09:40:39.861Z,-15.92
2018-01-19T09:41:40.433Z,-15.92
2018-01-19T09:42:41.003Z,-15.92
2018-01-19T09:43:41.577Z,-15.92
2018-01-19T09:44:42.143Z,-15.92
2018-01-19T09:45:42.713Z,-15.92
2018-01-19T09:46:43.284Z,-15.92
2018-01-19T09:47:43.857Z,-15.92
2018-01-19T09:48:44.427Z,-15.92
2018-01-19T09:49:44.998Z,-15.92
2018-01-19T09:50:45.570Z,-15.92
2018-01-19T09:51:46.140Z,-15.92
2018-01-19T09:52:46.710Z,-15.92
2018-01-19T09:53:47.282Z,-15.92
2018-01-19T09:54:47.853Z,-15.92
2018-01-19T09:55:48.423Z,-15.92
2018-01-19T09:56:48.996Z,-15.92
2018-01-19T09:57:49.586Z,-15.92
2018-01-19T09:58:50.156Z,-15.92
2018-01-19T09:59:50.726Z,-15.92
2018-01-19T10:00:51.298Z,-15.92
2018-01-19T10:01:51.869Z,-15.92
2018-01-19T10:02:52.457Z,-15.92
2018-01-19T10:03:53.024Z,-15.92
2018-01-19T10:04:53.597Z,-15.92
2018-01-19T10:05:54.167Z,-15.92
2018-01-19T10:06:54.744Z,3.91
2018-01-19T10:07:55.318Z,3.98
2018-01-19T10:08:55.887Z,3.91
2018-01-19T10:09:56.461Z,-15.92
2018-01-19T10:10:57.045Z,-15.92
2018-01-19T10:11:57.616Z,-15.92
2018-01-19T10:12:58.187Z,-15.92
2018-01-19T10:13:58.759Z,-15.92
2018-01-19T10:14:59.331Z,-15.92
2018-01-19T10:15:59.903Z,-15.92
2018-01-19T10:17:00.489Z,-15.92
2018-01-19T10:18:01.063Z,-15.92
2018-01-19T10:19:01.632Z,-15.92
2018-01-19T10:20:02.204Z,-15.92
2018-01-19T10:21:02.772Z,-15.92
2018-01-19T10:22:03.345Z,-15.92
2018-01-19T10:23:03.916Z,-15.92
2018-01-19T10:24:04.486Z,-15.92
2018-01-19T10:25:05.057Z,-15.92
2018-01-19T10:26:05.642Z,-15.92
2018-01-19T10:27:06.230Z,-15.92
2018-01-19T10:28:06.801Z,-15.92
2018-01-19T10:29:07.373Z,4.14
2018-01-19T10:30:07.943Z,4.19
2018-01-19T10:31:08.514Z,4.14
2018-01-19T10:32:09.084Z,4.19
2018-01-19T10:33:09.657Z,4.20
2018-01-19T10:34:10.227Z,4.14
2018-01-19T10:35:10.798Z,4.20
2018-01-19T10:36:11.371Z,4.20
2018-01-19T10:37:11.941Z,4.28
2018-01-19T10:38:12.511Z,4.22
2018-01-19T10:39:13.084Z,4.16
2018-01-19T10:40:13.655Z,4.17
2018-01-19T10:41:14.227Z,4.22
2018-01-19T10:42:14.799Z,4.24
2018-01-19T10:43:15.370Z,4.13
2018-01-19T10:44:15.941Z,4.20
2018-01-19T10:45:16.513Z,4.14
2018-01-19T10:46:17.084Z,4.17
2018-01-19T10:47:17.656Z,4.26
2018-01-19T10:48:18.229Z,4.20
2018-01-19T10:49:18.812Z,4.14
2018-01-19T10:50:19.385Z,4.23
2018-01-19T10:51:19.960Z,4.24
2018-01-19T10:52:20.531Z,4.19
2018-01-19T10:53:21.114Z,4.28
2018-01-19T10:54:21.685Z,4.30
2018-01-19T10:55:22.255Z,4.26
2018-01-19T10:56:22.828Z,4.23
2018-01-19T10:57:23.399Z,4.34
2018-01-19T10:58:23.970Z,4.30
2018-01-19T10:59:24.557Z,4.20
2018-01-19T11:00:25.129Z,4.26
2018-01-19T11:01:25.708Z,4.20
2018-01-19T11:02:26.272Z,4.24
2018-01-19T11:03:26.843Z,4.30
2018-01-19T11:04:27.414Z,4.28
2018-01-19T11:05:27.986Z,4.31
2018-01-19T11:06:28.557Z,4.30
2018-01-19T11:07:29.128Z,4.35
2018-01-19T11:08:29.700Z,4.37
2018-01-19T11:09:30.312Z,4.31
2018-01-19T11:10:30.843Z,4.35
2018-01-19T11:11:31.414Z,4.42
2018-01-19T11:12:31.987Z,4.32
2018-01-19T11:13:32.557Z,4.31
2018-01-19T11:14:33.137Z,4.35
2018-01-19T11:15:33.715Z,4.31
2018-01-19T11:16:34.287Z,4.30
2018-01-19T11:17:34.858Z,4.35
2018-01-19T11:18:35.430Z,4.42
2018-01-19T11:19:36.003Z,4.50
2018-01-19T11:20:36.572Z,4.49
2018-01-19T11:21:37.144Z,4.42
2018-01-19T11:22:37.717Z,4.32
2018-01-19T11:23:38.288Z,4.42
2018-01-19T11:24:38.860Z,4.38
2018-01-19T11:25:39.433Z,4.41
2018-01-19T11:26:40.004Z,4.42
2018-01-19T11:27:40.587Z,4.31
2018-01-19T11:28:41.157Z,4.48
2018-01-19T11:29:41.731Z,4.48
2018-01-19T11:30:42.301Z,4.41
2018-01-19T11:31:42.873Z,4.44
2018-01-19T11:32:43.447Z,4.37
2018-01-19T11:33:44.018Z,4.41
2018-01-19T11:34:44.589Z,4.45
2018-01-19T11:35:45.161Z,4.44
2018-01-19T11:36:45.733Z,4.48
2018-01-19T11:37:46.305Z,4.48
2018-01-19T11:38:46.876Z,4.53
2018-01-19T11:39:47.446Z,4.53
2018-01-19T11:40:48.020Z,4.55
2018-01-19T11:41:48.600Z,4.48
2018-01-19T11:42:49.170Z,4.41
2018-01-19T11:43:49.740Z,4.48
2018-01-19T11:44:50.310Z,4.55
2018-01-19T11:45:50.880Z,4.56
2018-01-19T11:46:51.451Z,4.56
2018-01-19T11:47:52.025Z,4.48
2018-01-19T11:48:52.592Z,4.53
2018-01-19T11:49:53.164Z,4.48
2018-01-19T11:50:53.737Z,4.45
2018-01-19T11:51:54.306Z,4.59
2018-01-19T11:52:54.877Z,4.66
2018-01-19T11:53:55.451Z,4.59
2018-01-19T11:54:56.021Z,4.60
2018-01-19T11:55:56.593Z,4.63
2018-01-19T11:56:57.167Z,4.58
2018-01-19T11:57:57.737Z,4.55
2018-01-19T11:58:58.309Z,4.50
2018-01-19T11:59:58.882Z,4.63
2018-01-19T12:00:59.514Z,4.66
2018-01-19T12:02:00.025Z,4.66
2018-01-19T12:03:00.599Z,4.63
2018-01-19T12:04:01.183Z,4.63
2018-01-19T12:05:01.754Z,4.62
2018-01-19T12:06:02.339Z,4.66
2018-01-19T12:07:02.925Z,4.66
2018-01-19T12:08:03.500Z,4.68
2018-01-19T12:09:04.070Z,4.60
2018-01-19T12:10:04.641Z,4.60
2018-01-19T12:11:05.213Z,4.59
2018-01-19T12:12:05.792Z,4.63
2018-01-19T12:13:06.357Z,4.62
2018-01-19T12:14:06.929Z,4.60
2018-01-19T12:15:07.501Z,4.63
2018-01-19T12:16:08.070Z,4.67
2018-01-19T12:17:08.643Z,4.67
2018-01-19T12:18:09.215Z,4.78
2018-01-19T12:19:09.787Z,4.77
2018-01-19T12:20:10.397Z,4.82
2018-01-19T12:21:10.928Z,4.82
2018-01-19T12:22:11.498Z,4.75
2018-01-19T12:23:12.081Z,4.78
2018-01-19T12:24:12.665Z,4.80
2018-01-19T12:25:13.236Z,4.75
2018-01-19T12:26:13.807Z,4.70
2018-01-19T12:27:14.377Z,4.68
2018-01-19T12:28:14.949Z,4.75
2018-01-19T12:29:15.518Z,4.63
2018-01-19T12:30:16.090Z,4.74
2018-01-19T12:31:16.664Z,4.80
2018-01-19T12:32:17.233Z,4.80
2018-01-19T12:33:17.805Z,4.77
2018-01-19T12:34:18.377Z,4.84
2018-01-19T12:35:18.948Z,4.80
2018-01-19T12:36:19.519Z,4.84
2018-01-19T12:37:20.105Z,4.94
2018-01-19T12:38:20.688Z,4.96
2018-01-19T12:39:21.261Z,4.94
2018-01-19T12:40:21.841Z,4.92
2018-01-19T12:41:22.401Z,4.89
2018-01-19T12:42:22.971Z,4.87
2018-01-19T12:43:23.542Z,4.90
2018-01-19T12:44:24.113Z,4.89
2018-01-19T12:45:24.683Z,4.80
2018-01-19T12:46:25.304Z,4.92
2018-01-19T12:47:25.875Z,4.89
2018-01-19T12:48:26.448Z,4.94
2018-01-19T12:49:27.020Z,4.93
2018-01-19T12:50:27.590Z,4.90
2018-01-19T12:51:28.163Z,4.97
2018-01-19T12:52:28.734Z,4.82
2018-01-19T12:53:29.310Z,4.93
2018-01-19T12:54:29.875Z,4.96
2018-01-19T12:55:30.446Z,4.94
2018-01-19T12:56:31.018Z,4.86
2018-01-19T12:57:31.588Z,4.92
2018-01-19T12:58:32.158Z,4.90
2018-01-19T12:59:32.730Z,4.90
2018-01-19T13:00:33.300Z,4.84
2018-01-19T13:01:33.870Z,4.82
2018-01-19T13:02:34.442Z,4.77
2018-01-19T13:03:35.012Z,4.78
2018-01-19T13:04:35.582Z,4.78
2018-01-19T13:05:36.152Z,4.80
2018-01-19T13:06:36.722Z,4.80
2018-01-19T13:07:37.295Z,4.86
2018-01-19T13:08:37.907Z,4.84
2018-01-19T13:09:38.450Z,4.82
2018-01-19T13:10:39.021Z,4.89